createdAt,value
2022-08-03T00:00:27.105Z,1.10
2022-08-03T00:02:54.128Z,1.40
2022-08-03T00:05:21.081Z,1.50
2022-08-03T00:07:48.492Z,1.20
2022-08-03T00:10:16.806Z,1.55
2022-08-03T00:12:43.738Z,1.40
2022-08-03T00:15:15.005Z,1.30
2022-08-03T00:17:52.568Z,1.17
2022-08-03T00:20:24.509Z,1.23
2022-08-03T00:22:51.525Z,1.35
2022-08-03T00:25:19.189Z,1.27
2022-08-03T00:27:45.972Z,1.23
2022-08-03T00:30:15.339Z,1.48
2022-08-03T00:32:44.432Z,1.23
2022-08-03T00:35:21.284Z,1.38
2022-08-03T00:37:59.979Z,1.40
2022-08-03T00:40:27.169Z,1.73
2022-08-03T00:43:05.881Z,1.17
2022-08-03T00:45:37.852Z,1.40
2022-08-03T00:48:06.707Z,1.33
2022-08-03T00:50:54.187Z,1.17
2022-08-03T00:53:21.536Z,1.15
2022-08-03T00:55:48.502Z,1.38
2022-08-03T00:58:15.359Z,1.27
2022-08-03T01:00:42.199Z,1.10
2022-08-03T01:03:10.760Z,1.20
2022-08-03T01:05:53.236Z,1.20
2022-08-03T01:08:47.938Z,1.20
2022-08-03T01:12:00.059Z,1.35
2022-08-03T01:14:32.018Z,1.40
2022-08-03T01:17:13.141Z,1.30
2022-08-03T01:20:09.575Z,1.40
2022-08-03T01:22:52.083Z,1.00
2022-08-03T01:25:31.555Z,1.40
2022-08-03T01:28:32.877Z,1.40
2022-08-03T01:31:04.938Z,1.25
2022-08-03T01:33:39.081Z,1.30
2022-08-03T01:36:10.611Z,1.42
2022-08-03T01:38:44.301Z,1.10
2022-08-03T01:41:18.795Z,1.27
2022-08-03T01:44:27.356Z,1.23
2022-08-03T01:46:38.413Z,1.10
2022-08-03T01:49:10.657Z,1.33
2022-08-03T01:51:57.864Z,1.20
2022-08-03T01:54:29.763Z,1.13
2022-08-03T01:56:58.437Z,1.30
2022-08-03T01:59:26.402Z,1.20
2022-08-03T02:02:16.101Z,1.20
2022-08-03T02:04:43.685Z,1.27
2022-08-03T02:07:11.927Z,1.17
2022-08-03T02:09:41.407Z,1.40
2022-08-03T02:12:13.959Z,1.23
2022-08-03T02:14:43.285Z,1.30
2022-08-03T02:17:11.096Z,1.40
2022-08-03T02:19:38.486Z,1.13
2022-08-03T02:22:08.456Z,1.67
2022-08-03T02:24:35.421Z,1.40
2022-08-03T02:27:06.068Z,1.30
2022-08-03T02:29:40.353Z,1.15
2022-08-03T02:32:12.478Z,1.30
2022-08-03T02:34:42.018Z,1.27
2022-08-03T02:37:11.675Z,1.08
2022-08-03T02:39:40.869Z,1.40
2022-08-03T02:42:09.729Z,1.30
2022-08-03T02:44:40.428Z,1.30
2022-08-03T02:47:10.767Z,1.38
2022-08-03T02:49:51.076Z,1.38
2022-08-03T02:52:24.184Z,1.50
2022-08-03T02:54:54.948Z,1.30
2022-08-03T02:57:23.290Z,1.10
2022-08-03T02:59:51.602Z,1.48
2022-08-03T03:02:19.717Z,1.50
2022-08-03T03:05:50.702Z,1.50
2022-08-03T03:07:51.440Z,1.50
2022-08-03T03:10:23.153Z,1.30
2022-08-03T03:12:56.506Z,1.95
2022-08-03T03:15:25.661Z,1.30
2022-08-03T03:17:53.636Z,1.50
2022-08-03T03:20:26.778Z,1.38
2022-08-03T03:23:00.654Z,1.50
2022-08-03T03:25:30.732Z,1.40
2022-08-03T03:27:58.425Z,1.20
2022-08-03T03:30:26.567Z,1.30
2022-08-03T03:32:54.229Z,1.48
2022-08-03T03:35:21.465Z,1.40
2022-08-03T03:37:48.268Z,1.50
2022-08-03T03:40:15.145Z,1.30
2022-08-03T03:42:42.287Z,1.40
2022-08-03T03:45:09.735Z,1.30
2022-08-03T03:47:37.220Z,1.52
2022-08-03T03:50:05.425Z,1.27
2022-08-03T03:52:33.288Z,1.60
2022-08-03T03:55:01.178Z,1.30
2022-08-03T03:57:29.676Z,1.60
2022-08-03T03:59:56.746Z,1.50
2022-08-03T04:02:23.895Z,1.40
2022-08-03T04:05:09.378Z,1.10
2022-08-03T04:08:18.328Z,1.52
2022-08-03T04:10:59.426Z,1.30
2022-08-03T04:13:36.403Z,1.52
2022-08-03T04:16:04.275Z,1.50
2022-08-03T04:18:34.508Z,1.60
2022-08-03T04:21:05.504Z,1.50
2022-08-03T04:23:35.679Z,1.30
2022-08-03T04:26:05.347Z,1.60
2022-08-03T04:28:33.295Z,1.60
2022-08-03T04:31:03.320Z,1.55
2022-08-03T04:33:33.284Z,1.52
2022-08-03T04:36:06.343Z,1.40
2022-08-03T04:38:38.830Z,1.60
2022-08-03T04:41:06.482Z,1.50
2022-08-03T04:43:34.535Z,1.60
2022-08-03T04:46:02.223Z,1.40
2022-08-03T04:48:29.658Z,1.60
2022-08-03T04:50:56.988Z,1.63
2022-08-03T04:53:23.898Z,1.40
2022-08-03T04:55:50.618Z,1.45
2022-08-03T04:58:18.661Z,1.60
2022-08-03T05:00:45.732Z,1.83
2022-08-03T05:03:20.490Z,1.83
2022-08-03T05:05:52.587Z,1.60
2022-08-03T05:08:27.698Z,1.70
2022-08-03T05:10:55.797Z,1.52
2022-08-03T05:13:26.346Z,1.50
2022-08-03T05:15:53.373Z,1.75
2022-08-03T05:18:20.177Z,1.48
2022-08-03T05:20:47.069Z,1.73
2022-08-03T05:23:14.268Z,1.70
2022-08-03T05:25:41.059Z,1.80
2022-08-03T05:28:16.861Z,1.60
2022-08-03T05:30:43.622Z,1.80
2022-08-03T05:33:10.985Z,1.88
2022-08-03T05:35:57.235Z,2.00
2022-08-03T05:38:28.857Z,1.60
2022-08-03T05:41:21.812Z,1.80
2022-08-03T05:43:47.985Z,1.73
2022-08-03T05:46:15.205Z,2.20
2022-08-03T05:48:42.687Z,1.95
2022-08-03T05:51:11.668Z,2.22
2022-08-03T05:53:39.728Z,1.85
2022-08-03T05:56:14.412Z,2.20
2022-08-03T06:01:14.280Z,2.17
2022-08-03T06:03:41.194Z,2.30
2022-08-03T06:06:08.276Z,2.30
2022-08-03T06:08:35.283Z,2.28
2022-08-03T06:11:02.208Z,2.10
2022-08-03T06:13:29.575Z,2.20
2022-08-03T06:15:56.527Z,2.25
2022-08-03T06:18:24.604Z,2.17
2022-08-03T06:20:52.335Z,2.20
2022-08-03T06:23:19.584Z,2.60
2022-08-03T06:25:46.777Z,2.05
2022-08-03T06:28:51.631Z,2.20
2022-08-03T06:31:06.539Z,2.05
2022-08-03T06:34:31.010Z,2.35
2022-08-03T06:36:20.598Z,2.20
2022-08-03T06:38:47.608Z,2.20
2022-08-03T06:41:14.382Z,2.30
2022-08-03T06:44:02.957Z,2.25
2022-08-03T06:46:29.390Z,2.10
2022-08-03T06:48:56.619Z,2.00
2022-08-03T06:52:05.021Z,2.38
2022-08-03T06:54:12.263Z,2.33
2022-08-03T06:56:39.039Z,2.50
2022-08-03T06:59:05.806Z,2.10
2022-08-03T07:01:32.610Z,2.10
2022-08-03T07:04:00.516Z,2.42
2022-08-03T07:06:27.454Z,2.17
2022-08-03T07:08:59.011Z,2.00
2022-08-03T07:11:26.502Z,2.20
2022-08-03T07:13:53.256Z,2.38
2022-08-03T07:16:20.462Z,2.03
2022-08-03T07:18:47.176Z,2.00
2022-08-03T07:21:16.120Z,1.90
2022-08-03T07:23:42.964Z,2.00
2022-08-03T07:26:09.830Z,1.90
2022-08-03T07:28:36.549Z,1.77
2022-08-03T07:31:03.537Z,2.10
2022-08-03T07:33:30.282Z,1.88
2022-08-03T07:35:57.109Z,2.00
2022-08-03T07:38:23.931Z,1.85
2022-08-03T07:40:50.753Z,1.60
2022-08-03T07:43:17.692Z,1.80
2022-08-03T07:45:44.555Z,1.90
2022-08-03T07:48:12.618Z,1.63
2022-08-03T07:50:39.627Z,1.73
2022-08-03T07:53:06.382Z,1.42
2022-08-03T07:55:33.297Z,1.60
2022-08-03T07:58:06.012Z,1.58
2022-08-03T08:00:33.964Z,1.67
2022-08-03T08:03:00.876Z,1.50
2022-08-03T08:05:28.157Z,1.70
2022-08-03T08:07:55.453Z,1.40
2022-08-03T08:10:22.464Z,1.38
2022-08-03T08:12:49.594Z,1.50
2022-08-03T08:15:16.465Z,1.70
2022-08-03T08:17:49.829Z,1.55
2022-08-03T08:20:27.923Z,1.40
2022-08-03T08:23:01.046Z,1.50
2022-08-03T08:25:30.376Z,1.30
2022-08-03T08:28:31.373Z,1.60
2022-08-03T08:30:44.353Z,1.50
2022-08-03T08:33:22.323Z,1.33
2022-08-03T08:35:51.510Z,1.30
2022-08-03T08:38:18.391Z,1.55
2022-08-03T08:40:45.390Z,1.15
2022-08-03T08:43:12.178Z,1.20
2022-08-03T08:45:40.506Z,1.30
2022-08-03T08:48:10.573Z,1.20
2022-08-03T08:50:38.770Z,1.20
2022-08-03T08:53:09.896Z,1.15
2022-08-03T08:55:59.695Z,1.20
2022-08-03T08:58:30.318Z,1.10
2022-08-03T09:00:57.226Z,1.33
2022-08-03T09:03:29.622Z,1.10
2022-08-03T09:06:00.578Z,1.20
2022-08-03T09:08:28.651Z,1.35
2022-08-03T09:10:55.526Z,1.10
2022-08-03T09:13:22.535Z,1.02
2022-08-03T09:16:01.206Z,1.02
2022-08-03T09:18:32.655Z,1.20
2022-08-03T09:21:34.133Z,0.90
2022-08-03T09:24:05.207Z,1.30
2022-08-03T09:26:37.563Z,1.10
2022-08-03T09:29:14.455Z,1.05
2022-08-03T09:31:44.690Z,0.82
2022-08-03T09:34:15.046Z,1.10
2022-08-03T09:36:47.252Z,1.08
2022-08-03T09:39:16.073Z,1.17
2022-08-03T09:41:45.724Z,1.10
2022-08-03T09:44:25.407Z,1.02
2022-08-03T09:46:56.603Z,1.20
2022-08-03T09:49:25.062Z,1.20
2022-08-03T09:52:33.608Z,1.10
2022-08-03T09:54:39.731Z,1.20
2022-08-03T09:57:06.673Z,1.02
2022-08-03T09:59:34.448Z,1.10
2022-08-03T10:02:01.828Z,1.25
2022-08-03T10:04:29.307Z,1.13
2022-08-03T10:07:09.255Z,1.10
2022-08-03T10:09:37.051Z,1.10
2022-08-03T10:12:11.578Z,1.08
2022-08-03T10:14:45.630Z,1.10
2022-08-03T10:17:12.945Z,1.20
2022-08-03T10:19:41.465Z,1.40
2022-08-03T10:22:26.571Z,1.30
2022-08-03T10:24:59.218Z,1.08
2022-08-03T10:27:30.940Z,1.10
2022-08-03T10:30:01.267Z,1.10
2022-08-03T10:32:48.762Z,1.20
2022-08-03T10:35:19.687Z,0.93
2022-08-03T10:37:56.399Z,0.90
2022-08-03T10:40:47.519Z,1.27
2022-08-03T10:43:21.214Z,1.17
2022-08-03T10:45:48.277Z,1.13
2022-08-03T10:48:16.371Z,1.30
2022-08-03T10:50:44.142Z,1.00
2022-08-03T10:53:11.026Z,1.00
2022-08-03T10:56:03.195Z,1.00
2022-08-03T10:58:53.369Z,1.27
2022-08-03T11:02:01.091Z,1.08
2022-08-03T11:04:30.003Z,1.20
2022-08-03T11:07:16.617Z,1.10
2022-08-03T11:09:45.360Z,1.20
2022-08-03T11:12:30.272Z,0.80
2022-08-03T11:15:08.761Z,1.20
2022-08-03T11:17:46.162Z,1.20
2022-08-03T11:20:46.006Z,1.00
2022-08-03T11:23:13.442Z,1.23
2022-08-03T11:26:15.114Z,1.10
2022-08-03T11:28:44.473Z,1.13
2022-08-03T11:31:48.200Z,1.08
2022-08-03T11:34:12.446Z,1.20
2022-08-03T11:37:17.272Z,1.10
2022-08-03T11:39:46.649Z,1.10
2022-08-03T11:42:38.934Z,1.20
2022-08-03T11:45:08.939Z,1.38
2022-08-03T11:47:50.199Z,1.00
2022-08-03T11:50:19.840Z,1.30
2022-08-03T11:52:46.743Z,1.00
2022-08-03T11:55:15.732Z,1.20
2022-08-03T11:59:01.814Z,1.10
2022-08-03T12:00:32.334Z,1.40
2022-08-03T12:03:04.245Z,1.10
2022-08-03T12:05:53.407Z,1.50
2022-08-03T12:08:27.746Z,1.17
2022-08-03T12:10:56.827Z,1.17
2022-08-03T12:14:44.635Z,1.30
2022-08-03T12:16:16.841Z,1.48
2022-08-03T12:18:43.719Z,1.20
2022-08-03T12:21:11.738Z,1.27
2022-08-03T12:23:39.603Z,1.15
2022-08-03T12:26:09.671Z,1.20
2022-08-03T12:28:38.322Z,1.20
2022-08-03T12:31:09.630Z,1.17
2022-08-03T12:34:02.719Z,1.23
2022-08-03T12:36:32.188Z,1.60
2022-08-03T12:39:01.844Z,1.40
2022-08-03T12:41:39.827Z,1.20
2022-08-03T12:44:07.819Z,1.05
2022-08-03T12:46:35.937Z,1.20
2022-08-03T12:49:13.409Z,1.30
2022-08-03T12:51:43.493Z,1.52
2022-08-03T12:54:24.282Z,1.33
2022-08-03T12:57:02.853Z,1.55
2022-08-03T12:59:53.232Z,1.52
2022-08-03T13:02:23.634Z,1.13
2022-08-03T13:04:52.309Z,1.50
2022-08-03T13:07:20.117Z,1.50
2022-08-03T13:09:49.335Z,1.20
2022-08-03T13:12:21.328Z,1.52
2022-08-03T13:15:00.880Z,1.33
2022-08-03T13:17:28.094Z,1.52
2022-08-03T13:19:55.666Z,1.30
2022-08-03T13:22:25.521Z,1.40
2022-08-03T13:24:55.914Z,1.45
2022-08-03T13:28:04.014Z,1.45
2022-08-03T13:30:10.535Z,1.38
2022-08-03T13:32:37.280Z,1.40
2022-08-03T13:35:04.587Z,1.52
2022-08-03T13:37:34.835Z,1.30
2022-08-03T13:40:04.624Z,1.60
2022-08-03T13:42:33.967Z,1.38
2022-08-03T13:45:01.714Z,1.50
2022-08-03T13:47:29.428Z,1.40
2022-08-03T13:50:01.877Z,1.98
2022-08-03T13:52:34.581Z,1.80
2022-08-03T13:55:03.513Z,2.10
2022-08-03T13:58:06.729Z,1.80
2022-08-03T14:00:27.776Z,1.77
2022-08-03T14:03:10.840Z,1.83
2022-08-03T14:05:41.435Z,1.52
2022-08-03T14:08:08.398Z,1.67
2022-08-03T14:10:37.974Z,1.63
2022-08-03T14:13:05.566Z,1.98
2022-08-03T14:15:37.716Z,1.90
2022-08-03T14:18:12.886Z,1.63
2022-08-03T14:20:50.305Z,1.77
2022-08-03T14:23:21.077Z,1.73
2022-08-03T14:25:52.354Z,1.88
2022-08-03T14:28:24.057Z,1.60
2022-08-03T14:30:55.757Z,1.60
2022-08-03T14:33:22.862Z,1.67
2022-08-03T14:35:50.762Z,1.65
2022-08-03T14:38:18.381Z,1.45
2022-08-03T14:40:45.337Z,1.52
2022-08-03T14:43:12.555Z,1.50
2022-08-03T14:45:42.701Z,2.03
2022-08-03T14:50:27.803Z,1.77
2022-08-03T14:50:56.771Z,1.60
2022-08-03T14:53:23.970Z,1.95
2022-08-03T14:55:52.732Z,1.50
2022-08-03T14:58:21.864Z,1.75
2022-08-03T15:00:50.507Z,1.73
2022-08-03T15:03:21.381Z,1.73
2022-08-03T15:05:48.596Z,1.65
2022-08-03T15:08:15.553Z,1.40
2022-08-03T15:10:44.854Z,1.52
2022-08-03T15:13:15.550Z,2.03
2022-08-03T15:15:42.793Z,1.50
2022-08-03T15:18:09.880Z,2.03
2022-08-03T15:20:44.559Z,1.40
2022-08-03T15:23:13.283Z,1.75
2022-08-03T15:26:29.130Z,1.42
2022-08-03T15:28:26.806Z,1.33
2022-08-03T15:30:53.705Z,1.73
2022-08-03T15:33:20.962Z,1.70
2022-08-03T15:35:47.953Z,1.70
2022-08-03T15:38:15.384Z,1.45
2022-08-03T15:40:42.304Z,1.90
2022-08-03T15:43:09.164Z,1.45
2022-08-03T15:45:36.871Z,1.23
2022-08-03T15:48:05.829Z,1.60
2022-08-03T15:50:32.924Z,1.42
2022-08-03T15:52:59.753Z,1.20
2022-08-03T15:55:27.139Z,1.30
2022-08-03T15:59:04.789Z,1.30
2022-08-03T16:00:42.187Z,1.42
2022-08-03T16:03:09.317Z,1.40
2022-08-03T16:05:36.435Z,1.17
2022-08-03T16:08:05.109Z,1.40
2022-08-03T16:10:33.886Z,1.23
2022-08-03T16:13:00.884Z,1.40
2022-08-03T16:15:28.153Z,1.50
2022-08-03T16:17:54.980Z,1.40
2022-08-03T16:20:31.711Z,1.10
2022-08-03T16:23:10.333Z,1.30
2022-08-03T16:25:42.194Z,1.40
2022-08-03T16:28:13.802Z,1.42
2022-08-03T16:30:43.999Z,1.20
2022-08-03T16:33:11.732Z,1.50
2022-08-03T16:35:45.751Z,1.33
2022-08-03T16:38:18.156Z,1.35
2022-08-03T16:40:46.890Z,1.35
2022-08-03T16:43:17.905Z,1.15
2022-08-03T16:45:47.232Z,1.33
2022-08-03T16:48:15.377Z,1.38
2022-08-03T16:50:42.401Z,1.38
2022-08-03T16:53:15.686Z,1.40
2022-08-03T16:55:51.989Z,1.42
2022-08-03T16:58:34.542Z,1.20
2022-08-03T17:01:22.312Z,1.25
2022-08-03T17:04:02.162Z,1.60
2022-08-03T17:06:45.057Z,1.60
2022-08-03T17:09:14.939Z,1.75
2022-08-03T17:11:47.275Z,1.50
2022-08-03T17:14:16.358Z,1.20
2022-08-03T17:16:52.617Z,1.70
2022-08-03T17:19:26.173Z,1.20
2022-08-03T17:21:56.826Z,1.60
2022-08-03T17:24:33.045Z,1.40
2022-08-03T17:27:08.981Z,1.58
2022-08-03T17:29:56.595Z,1.38
2022-08-03T17:32:23.623Z,1.30
2022-08-03T17:34:51.236Z,1.10
2022-08-03T17:37:50.205Z,1.40
2022-08-03T17:40:09.793Z,1.60
2022-08-03T17:42:38.232Z,1.30
2022-08-03T17:45:06.576Z,1.13
2022-08-03T17:47:42.671Z,1.38
2022-08-03T17:50:24.047Z,1.40
2022-08-03T17:53:07.717Z,1.23
2022-08-03T17:56:04.207Z,1.48
2022-08-03T17:59:10.865Z,1.48
2022-08-03T18:02:30.407Z,1.70
2022-08-03T18:05:16.450Z,1.15
2022-08-03T18:08:00.869Z,1.48
2022-08-03T18:10:35.391Z,1.48
2022-08-03T18:13:10.887Z,1.30
2022-08-03T18:15:45.990Z,1.45
2022-08-03T18:18:32.223Z,1.38
2022-08-03T18:23:37.366Z,1.13
2022-08-03T18:26:07.786Z,1.35
2022-08-03T18:28:39.670Z,1.02
2022-08-03T18:31:11.659Z,1.30
2022-08-03T18:34:18.285Z,1.40
2022-08-03T18:36:29.953Z,1.27
2022-08-03T18:39:01.631Z,1.10
2022-08-03T18:41:33.621Z,1.20
2022-08-03T18:44:08.185Z,1.20
2022-08-03T18:46:48.803Z,1.33
2022-08-03T18:49:33.058Z,1.00
2022-08-03T18:52:12.183Z,1.17
2022-08-03T18:55:02.345Z,1.05
2022-08-03T18:57:48.618Z,1.00
2022-08-03T19:00:17.220Z,1.05
2022-08-03T19:03:07.015Z,1.13
2022-08-03T19:06:02.485Z,1.15
2022-08-03T19:08:49.894Z,0.90
2022-08-03T19:12:13.899Z,1.50
2022-08-03T19:14:42.251Z,1.25
2022-08-03T19:17:11.331Z,1.00
2022-08-03T19:19:43.810Z,1.20
2022-08-03T19:22:15.958Z,1.00
2022-08-03T19:24:45.263Z,0.90
2022-08-03T19:27:13.113Z,1.02
2022-08-03T19:29:58.066Z,1.17
2022-08-03T19:32:31.173Z,1.00
2022-08-03T19:35:00.665Z,1.00
2022-08-03T19:37:33.139Z,1.15
2022-08-03T19:40:10.890Z,0.95
2022-08-03T19:42:44.587Z,1.00
2022-08-03T19:45:15.685Z,1.00
2022-08-03T19:47:47.409Z,0.98
2022-08-03T19:50:16.103Z,0.73
2022-08-03T19:52:46.949Z,1.00
2022-08-03T19:55:16.050Z,0.88
2022-08-03T19:57:46.390Z,1.05
2022-08-03T20:00:19.474Z,0.90
2022-08-03T20:02:47.190Z,1.27
2022-08-03T20:05:18.401Z,1.10
2022-08-03T20:07:47.751Z,1.02
2022-08-03T20:10:16.766Z,1.00
2022-08-03T20:12:44.902Z,1.08
2022-08-03T20:15:12.009Z,1.00
2022-08-03T20:17:54.362Z,1.00
2022-08-03T20:20:32.947Z,1.20
2022-08-03T20:23:06.688Z,1.10
2022-08-03T20:25:48.673Z,1.15
2022-08-03T20:28:26.724Z,0.90
2022-08-03T20:30:54.720Z,0.90
2022-08-03T20:33:27.617Z,1.23
2022-08-03T20:36:01.437Z,1.10
2022-08-03T20:38:28.351Z,0.90
2022-08-03T20:40:56.373Z,0.85
2022-08-03T20:43:26.036Z,1.00
2022-08-03T20:46:00.267Z,1.00
2022-08-03T20:48:42.635Z,1.10
2022-08-03T20:51:20.164Z,1.05
2022-08-03T20:54:22.482Z,1.00
2022-08-03T20:56:52.147Z,1.20
2022-08-03T20:59:19.483Z,1.20
2022-08-03T21:01:47.213Z,1.10
2022-08-03T21:04:14.627Z,1.02
2022-08-03T21:09:49.723Z,1.10
2022-08-03T21:12:28.848Z,1.00
2022-08-03T21:13:13.662Z,1.13
2022-08-03T21:15:06.396Z,1.10
2022-08-03T21:17:41.014Z,1.08
2022-08-03T21:20:10.352Z,1.08
2022-08-03T21:22:45.338Z,0.95
2022-08-03T21:25:15.896Z,1.00
2022-08-03T21:27:42.858Z,1.10
2022-08-03T21:30:11.035Z,1.00
2022-08-03T21:32:40.877Z,1.23
2022-08-03T21:35:11.091Z,1.10
2022-08-03T21:37:39.650Z,1.08
2022-08-03T21:40:08.988Z,1.23
2022-08-03T21:42:35.941Z,1.00
2022-08-03T21:45:16.533Z,1.10
2022-08-03T21:47:45.199Z,0.80
2022-08-03T21:50:13.653Z,1.35
2022-08-03T21:52:46.157Z,1.10
2022-08-03T21:55:20.658Z,1.00
2022-08-03T21:57:53.365Z,1.05
2022-08-03T22:00:23.158Z,1.05
2022-08-03T22:03:10.642Z,1.15
2022-08-03T22:05:44.793Z,1.17
2022-08-03T22:08:14.930Z,1.17
2022-08-03T22:10:44.262Z,1.27
2022-08-03T22:13:19.474Z,1.20
2022-08-03T22:16:03.358Z,1.38
2022-08-03T22:18:31.455Z,1.13
2022-08-03T22:21:00.406Z,1.00
2022-08-03T22:23:27.671Z,1.13
2022-08-03T22:25:57.169Z,1.27
2022-08-03T22:28:28.796Z,1.35
2022-08-03T22:30:55.980Z,1.13
2022-08-03T22:33:26.631Z,1.10
2022-08-03T22:35:57.690Z,1.35
2022-08-03T22:38:26.552Z,1.30
2022-08-03T22:40:54.816Z,1.17
2022-08-03T22:43:26.317Z,1.08
2022-08-03T22:46:09.554Z,1.15
2022-08-03T22:48:41.611Z,1.13
2022-08-03T22:51:09.763Z,1.10
2022-08-03T22:53:36.919Z,1.10
2022-08-03T22:56:04.055Z,0.80
2022-08-03T22:58:30.844Z,1.17
2022-08-03T23:01:09.190Z,1.10
2022-08-03T23:04:01.150Z,1.10
2022-08-03T23:06:34.287Z,1.17
2022-08-03T23:09:06.326Z,1.30
2022-08-03T23:11:37.905Z,1.20
2022-08-03T23:14:15.798Z,1.10
2022-08-03T23:16:45.486Z,1.50
2022-08-03T23:19:17.032Z,1.25
2022-08-03T23:21:53.890Z,1.10
2022-08-03T23:24:30.184Z,1.30
2022-08-03T23:26:58.322Z,1.30
2022-08-03T23:29:26.609Z,1.20
2022-08-03T23:31:54.494Z,1.30
2022-08-03T23:34:41.790Z,1.10
2022-08-03T23:37:12.885Z,1.15
2022-08-03T23:39:42.165Z,1.15
2022-08-03T23:42:09.904Z,1.40
2022-08-03T23:44:38.587Z,1.10
2022-08-03T23:47:05.353Z,1.27
2022-08-03T23:49:32.633Z,1.38
2022-08-03T23:52:24.262Z,1.40
2022-08-03T23:55:30.060Z,1.17
2022-08-03T23:58:21.849Z,1.30
